»·PEaware :: DAL434 KSFO-KLAX

DAL434 :: KSFO-KLAX

FLIGHT INFORMATION

Flight Status: Arrived
Operator:
Delta Air Lines
More flights by this operator :: More flights under this callsign
Pilot: Christian H. (16685)
Aircraft: BOEING 737-800
(B738)
More flights by this aircraft type
Origin: KSFO San Francisco Intl
United States
Destination: KLAX Los Angeles Intl
United States
More flights between these airports :: More routes between these airports
Route: WESLA4 EBAYE BURGL IRNMN2
File this flight plan on PilotEdge
Remarks: PBN / A1B1C1D1S1S2 NAV / RNVD1E2A1 REG / N922SB EET / KZLA0024 RMK / SIMBRIEF
Altitude:
(Current/Filed)
31,000ft
Speed:
(Current/Filed)
475kts
Departed: 03-Oct-18 09:15 PM
Arrived: 03-Oct-18 10:21 PM
Distance/Time
Traveled:
293nm/1:06
Distance/Time
To Go:
Arrived

Flight Plot

Page will automatically refresh every two minutes.

Flight plan parsing failed; only flown route is shown


Map Options




Map Legend


Flown Route
Filed Route
Departure Airport
Arrival Airport
Navaid (VOR, NDB)
Fix

Horizontal Profiles

Position Reports

Time Latitude Longitude Heading Altitude Ground
Speed
03-Oct-18 20:25 37.615762 -122.383204 223 31ft 0kts
03-Oct-18 20:26 37.615762 -122.383204 223 31ft 0kts
03-Oct-18 20:27 37.615762 -122.383204 223 31ft 0kts
03-Oct-18 20:28 37.615762 -122.383204 223 31ft 0kts
03-Oct-18 20:29 37.615762 -122.383204 223 31ft 0kts
03-Oct-18 20:30 37.615762 -122.383204 223 31ft 0kts
03-Oct-18 20:31 37.615762 -122.383204 223 31ft 0kts
03-Oct-18 20:32 37.615762 -122.383204 223 31ft 0kts
03-Oct-18 20:33 37.615762 -122.383204 223 31ft 0kts
03-Oct-18 20:34 37.615762 -122.383204 223 31ft 0kts
03-Oct-18 20:35 37.615762 -122.383204 223 31ft 0kts
03-Oct-18 20:36 37.615762 -122.383204 223 31ft 0kts
03-Oct-18 20:37 37.615762 -122.383204 223 31ft 0kts
03-Oct-18 20:38 37.615762 -122.383204 223 31ft 0kts
03-Oct-18 20:39 37.615762 -122.383204 223 31ft 0kts
03-Oct-18 20:40 37.615762 -122.383204 223 31ft 0kts
03-Oct-18 20:41 37.615762 -122.383204 223 31ft 0kts
03-Oct-18 20:42 37.615762 -122.383204 223 31ft 0kts
03-Oct-18 20:43 37.615762 -122.383204 223 31ft 0kts
03-Oct-18 20:44 37.615762 -122.383204 223 31ft 0kts
03-Oct-18 20:45 37.615762 -122.383204 223 31ft 0kts
03-Oct-18 20:46 37.615762 -122.383204 223 31ft 0kts
03-Oct-18 20:47 37.615762 -122.383204 223 31ft 0kts
03-Oct-18 20:48 37.615762 -122.383204 223 31ft 0kts
03-Oct-18 20:49 37.615762 -122.383204 223 31ft 0kts
03-Oct-18 20:50 37.615762 -122.383204 223 31ft 0kts
03-Oct-18 20:51 37.615762 -122.383204 223 31ft 0kts
03-Oct-18 20:52 37.615762 -122.383204 223 31ft 0kts
03-Oct-18 20:53 37.615762 -122.383204 223 31ft 0kts
03-Oct-18 20:54 37.615762 -122.383204 223 31ft 0kts
03-Oct-18 20:55 37.615762 -122.383204 223 31ft 0kts
03-Oct-18 20:56 37.615762 -122.383204 223 31ft 0kts
03-Oct-18 20:57 37.615762 -122.383204 223 31ft 0kts
03-Oct-18 20:58 37.615942 -122.382989 223 30ft 0kts
03-Oct-18 20:59 37.616316 -122.382720 196 31ft 1kts
03-Oct-18 21:00 37.616033 -122.382462 115 31ft 0kts
03-Oct-18 21:01 37.616033 -122.382462 115 31ft 0kts
03-Oct-18 21:02 37.616033 -122.382462 115 31ft 0kts
03-Oct-18 21:03 37.616033 -122.382462 115 31ft 0kts
03-Oct-18 21:04 37.616027 -122.382445 115 31ft 0kts
03-Oct-18 21:05 37.616006 -122.382390 115 30ft 0kts
03-Oct-18 21:06 37.615887 -122.382092 117 30ft 4kts
03-Oct-18 21:07 37.615807 -122.381896 117 31ft 0kts
03-Oct-18 21:08 37.615646 -122.381510 118 30ft 8kts
03-Oct-18 21:09 37.615974 -122.380064 28 30ft 10kts
03-Oct-18 21:10 37.616568 -122.377284 103 25ft 14kts
03-Oct-18 21:11 37.615813 -122.371844 117 12ft 14kts
03-Oct-18 21:12 37.613695 -122.367498 139 11ft 3kts
03-Oct-18 21:13 37.611432 -122.362496 118 8ft 23kts
03-Oct-18 21:14 37.611003 -122.359018 25 8ft 0kts
03-Oct-18 21:15 37.611005 -122.359016 25 8ft 0kts
03-Oct-18 21:16 37.612107 -122.359318 297 8ft 17kts
03-Oct-18 21:17 37.622774 -122.384194 298 328ft 160kts
03-Oct-18 21:18 37.645221 -122.439234 293 2438ft 192kts
03-Oct-18 21:19 37.615917 -122.489613 188 3172ft 271kts
03-Oct-18 21:20 37.542054 -122.478778 179 5495ft 267kts
03-Oct-18 21:21 37.472751 -122.457646 134 8209ft 271kts
03-Oct-18 21:22 37.423191 -122.384649 134 10716ft 292kts
03-Oct-18 21:23 37.365856 -122.306273 134 12764ft 324kts
03-Oct-18 21:24 37.306968 -122.226347 135 15044ft 337kts
03-Oct-18 21:25 37.242567 -122.139230 135 17191ft 353kts
03-Oct-18 21:26 37.174857 -122.047909 135 19201ft 367kts
03-Oct-18 21:27 37.104238 -121.952953 136 21022ft 382kts
03-Oct-18 21:28 37.031149 -121.854961 136 22662ft 397kts
03-Oct-18 21:29 36.954755 -121.752877 136 24156ft 411kts
03-Oct-18 21:30 36.883500 -121.657987 136 25406ft 424kts
03-Oct-18 21:31 36.801861 -121.549622 135 26723ft 437kts
03-Oct-18 21:32 36.717792 -121.438393 135 27949ft 449kts
03-Oct-18 21:33 36.633200 -121.326818 135 29061ft 461kts
03-Oct-18 21:34 36.551163 -121.218854 134 30244ft 464kts
03-Oct-18 21:35 36.462616 -121.102762 134 31015ft 477kts
03-Oct-18 21:36 36.374435 -120.980217 131 31008ft 480kts
03-Oct-18 21:37 36.288583 -120.856756 131 31015ft 478kts
03-Oct-18 21:38 36.218491 -120.756457 131 31012ft 478kts
03-Oct-18 21:39 36.132916 -120.634478 131 31011ft 478kts
03-Oct-18 21:40 36.046498 -120.511756 131 31014ft 478kts
03-Oct-18 21:41 35.960329 -120.389809 131 30999ft 478kts
03-Oct-18 21:42 35.878488 -120.275701 137 31005ft 477kts
03-Oct-18 21:43 35.772674 -120.187401 150 31013ft 474kts
03-Oct-18 21:44 35.660322 -120.103320 150 31014ft 474kts
03-Oct-18 21:45 35.548691 -120.019134 150 31017ft 474kts
03-Oct-18 21:46 35.434845 -119.933069 149 26899ft 518kts
03-Oct-18 21:47 35.323203 -119.843140 147 23910ft 489kts
03-Oct-18 21:48 35.223630 -119.762181 154 25130ft 413kts
03-Oct-18 21:49 35.132507 -119.678307 144 24434ft 410kts
03-Oct-18 21:50 35.042364 -119.594260 144 24216ft 408kts
03-Oct-18 21:51 34.952507 -119.510784 146 24196ft 405kts
03-Oct-18 21:52 34.867721 -119.433358 148 24222ft 397kts
03-Oct-18 21:53 34.778157 -119.353448 148 24198ft 397kts
03-Oct-18 21:54 34.690121 -119.275896 149 24204ft 396kts
03-Oct-18 21:55 34.600941 -119.198580 149 24147ft 396kts
03-Oct-18 21:56 34.514263 -119.122901 148 21665ft 377kts
03-Oct-18 21:57 34.432974 -119.050957 148 19169ft 354kts
03-Oct-18 21:58 34.353467 -118.982116 147 17583ft 348kts
03-Oct-18 21:59 34.276887 -118.913398 146 15994ft 343kts
03-Oct-18 22:00 34.215009 -118.856814 145 14450ft 328kts
03-Oct-18 22:01 34.136682 -118.780577 139 12222ft 300kts
03-Oct-18 22:02 34.085576 -118.724532 139 10628ft 295kts
03-Oct-18 22:03 34.028903 -118.643648 105 9447ft 276kts
03-Oct-18 22:04 34.023503 -118.599539 98 8887ft 277kts
03-Oct-18 22:05 34.013596 -118.493710 97 7596ft 273kts
03-Oct-18 22:06 34.014986 -118.421845 78 6753ft 272kts
03-Oct-18 22:07 34.030048 -118.334098 84 5983ft 257kts
03-Oct-18 22:08 34.039140 -118.255825 82 5980ft 234kts
03-Oct-18 22:09 34.036247 -118.167665 100 5981ft 225kts
03-Oct-18 22:10 34.032069 -118.103598 91 5985ft 235kts
03-Oct-18 22:11 34.029713 -118.024635 91 5987ft 237kts
03-Oct-18 22:12 34.027665 -117.946955 91 5984ft 239kts
03-Oct-18 22:13 34.021245 -117.869113 122 6005ft 237kts
03-Oct-18 22:14 33.964506 -117.854251 219 5969ft 231kts
03-Oct-18 22:15 33.979800 -117.915720 286 5939ft 227kts
03-Oct-18 22:16 33.980361 -117.990802 263 5418ft 229kts
03-Oct-18 22:17 33.972105 -118.067404 263 4626ft 230kts
03-Oct-18 22:18 33.964040 -118.141755 263 4233ft 232kts
03-Oct-18 22:19 33.956077 -118.220163 264 3021ft 224kts
03-Oct-18 22:20 33.949462 -118.285751 262 1704ft 165kts
03-Oct-18 22:21 33.944252 -118.336859 261 887ft 151kts
03-Oct-18 22:22 33.939294 -118.385228 261 159ft 142kts
03-Oct-18 22:23 33.937472 -118.409038 359 132ft 10kts
03-Oct-18 22:24 33.938762 -118.408245 83 131ft 8kts
03-Oct-18 22:25 33.939136 -118.404493 82 127ft 0kts
03-Oct-18 22:26 33.939173 -118.404187 82 127ft 8kts
03-Oct-18 22:27 33.939671 -118.399268 82 120ft 11kts
03-Oct-18 22:28 33.940624 -118.398252 5 119ft 9kts
03-Oct-18 22:29 33.940973 -118.397634 77 118ft 0kts
03-Oct-18 22:30 33.940973 -118.397634 77 118ft 0kts

Navigation Log

Ident Type
Flight plan parsing failed, navigation log unavailable